Time;durP1;ratioP1;P1;durP2;ratioP2;P2;SDS_P1;SDS_P2;PMS_P1;PMS_P2;Temp;Humidity;BMP_temperature;BMP_pressure;BME280_temperature;BME280_humidity;BME280_pressure;Samples;Min_cycle;Max_cycle;Signal;HPM_P1;HPM_P2
2022/11/22 00:00:40;;;;;;;21.40;8.30;;;4.90;99.90;;;;;;5081078;28;20039;-81
2022/11/22 00:03:06;;;;;;;20.15;8.23;;;4.40;99.90;;;;;;5081175;28;20032;-81
2022/11/22 00:05:32;;;;;;;19.67;8.63;;;4.10;99.90;;;;;;5080712;28;20517;-80
2022/11/22 00:07:58;;;;;;;21.15;8.82;;;3.60;99.90;;;;;;5080921;28;20039;-81
2022/11/22 00:10:24;;;;;;;21.48;8.15;;;3.40;99.90;;;;;;5081013;28;20050;-81
2022/11/22 00:12:49;;;;;;;25.63;8.32;;;3.50;99.90;;;;;;5080784;28;20054;-81
2022/11/22 00:15:15;;;;;;;20.13;8.23;;;3.50;99.90;;;;;;5091445;28;20067;-81
2022/11/22 00:17:41;;;;;;;19.25;8.68;;;3.50;99.90;;;;;;5080463;28;20053;-80
2022/11/22 00:20:09;;;;;;;17.47;8.17;;;4.10;99.90;;;;;;5097656;28;20040;-80
2022/11/22 00:22:35;;;;;;;17.83;8.55;;;3.50;99.90;;;;;;5080737;28;20426;-80
2022/11/22 00:25:01;;;;;;;19.75;8.70;;;4.80;99.90;;;;;;5115940;28;20036;-80
2022/11/22 00:27:26;;;;;;;15.52;7.88;;;4.50;99.90;;;;;;5080487;28;20083;-80
2022/11/22 00:29:56;;;;;;;20.70;8.23;;;4.70;99.90;;;;;;5097397;28;20075;-80
2022/11/22 00:32:22;;;;;;;18.40;7.80;;;3.50;99.90;;;;;;5080849;28;20042;-80
2022/11/22 00:34:47;;;;;;;23.60;7.80;;;5.10;99.90;;;;;;5080177;28;20483;-80
2022/11/22 00:37:13;;;;;;;16.48;7.05;;;3.40;99.90;;;;;;5097324;28;20054;-80
2022/11/22 00:39:39;;;;;;;18.92;7.60;;;4.40;99.90;;;;;;5079625;28;20112;-80
2022/11/22 00:42:05;;;;;;;17.25;7.78;;;3.50;99.90;;;;;;5080710;28;20078;-80
2022/11/22 00:44:30;;;;;;;17.73;7.25;;;3.50;99.90;;;;;;5080530;28;20044;-80
2022/11/22 00:46:56;;;;;;;19.38;7.22;;;3.40;99.90;;;;;;5097109;28;20475;-80
2022/11/22 00:49:22;;;;;;;22.42;7.63;;;5.20;99.90;;;;;;5079477;28;20035;-84
2022/11/22 00:51:47;;;;;;;14.65;7.00;;;5.20;99.90;;;;;;5110280;28;20044;-84
2022/11/22 00:54:13;;;;;;;16.77;6.57;;;3.50;99.90;;;;;;5084324;28;20372;-84
2022/11/22 00:56:39;;;;;;;16.60;7.28;;;3.40;99.90;;;;;;5079997;28;20131;-84
2022/11/22 00:59:05;;;;;;;17.85;7.38;;;3.80;99.90;;;;;;5114811;28;20105;-84
2022/11/22 01:01:30;;;;;;;12.75;6.63;;;3.90;99.90;;;;;;5097190;28;20038;-85
2022/11/22 01:03:56;;;;;;;18.10;7.20;;;3.50;99.90;;;;;;5079881;28;20749;-84
2022/11/22 01:06:22;;;;;;;14.55;6.50;;;3.40;99.90;;;;;;5079819;28;20040;-81
2022/11/22 01:08:48;;;;;;;21.08;7.60;;;3.50;99.90;;;;;;5079414;28;20376;-81
2022/11/22 01:11:16;;;;;;;13.55;6.70;;;3.50;99.90;;;;;;5096586;28;20039;-81
2022/11/22 01:13:42;;;;;;;20.30;6.95;;;3.40;99.90;;;;;;5096813;28;20051;-81
2022/11/22 01:16:09;;;;;;;16.08;8.05;;;3.80;99.90;;;;;;5079402;28;20036;-81
2022/11/22 01:18:35;;;;;;;14.32;6.50;;;4.30;99.90;;;;;;5096241;28;20067;-81
2022/11/22 01:21:01;;;;;;;12.63;6.75;;;5.10;99.90;;;;;;5080267;28;20079;-81
2022/11/22 01:23:27;;;;;;;14.10;7.13;;;3.40;99.90;;;;;;5065518;28;20073;-85
2022/11/22 01:25:53;;;;;;;15.88;6.95;;;3.40;99.90;;;;;;5096129;28;20055;-85
2022/11/22 01:28:19;;;;;;;16.33;7.43;;;;;;;;;;5074117;28;20054;-85
2022/11/22 01:30:49;;;;;;;13.95;6.40;;;3.50;99.90;;;;;;5078438;28;20085;-85
2022/11/22 01:33:15;;;;;;;15.73;7.50;;;3.60;99.90;;;;;;5078680;28;20408;-85
2022/11/22 01:35:41;;;;;;;13.10;6.20;;;5.10;99.90;;;;;;5075597;28;20052;-85
2022/11/22 01:38:07;;;;;;;12.35;6.72;;;3.90;99.90;;;;;;5070695;28;20047;-85
2022/11/22 01:40:33;;;;;;;15.45;7.88;;;3.50;99.90;;;;;;5087160;28;20044;-81
2022/11/22 01:43:00;;;;;;;15.75;7.10;;;3.50;99.90;;;;;;5073361;28;20032;-81
2022/11/22 01:45:28;;;;;;;13.63;6.53;;;4.80;99.90;;;;;;5076985;28;20054;-81
2022/11/22 01:48:16;;;;;;;15.70;7.03;;;5.10;99.90;;;;;;5078391;28;20039;-81
2022/11/22 01:50:46;;;;;;;14.40;6.55;;;3.50;99.90;;;;;;5080906;28;20444;-81
2022/11/22 01:53:34;;;;;;;18.00;7.40;;;3.50;99.90;;;;;;5067939;28;20934;-81
2022/11/22 01:56:03;;;;;;;13.98;6.57;;;3.50;99.90;;;;;;5083900;28;20089;-81
2022/11/22 01:58:32;;;;;;;13.57;7.85;;;3.70;99.90;;;;;;5068169;28;20036;-81
2022/11/22 02:01:01;;;;;;;22.38;8.20;;;3.90;99.90;;;;;;5077922;28;20547;-81
2022/11/22 02:03:28;;;;;;;14.65;7.05;;;5.20;99.90;;;;;;5077371;28;20036;-81
2022/11/22 02:05:55;;;;;;;13.50;7.05;;;3.80;99.90;;;;;;5078024;28;20126;-81
2022/11/22 02:08:55;;;;;;;14.40;6.75;;;3.40;99.90;;;;;;5092630;28;20384;-81
2022/11/22 02:11:22;;;;;;;15.77;7.53;;;3.40;99.90;;;;;;5107896;28;20081;-81
2022/11/22 02:13:51;;;;;;;19.30;8.02;;;5.00;99.90;;;;;;5077894;28;20096;-81
2022/11/22 02:16:17;;;;;;;15.43;7.82;;;3.40;99.90;;;;;;5113074;28;20040;-81
2022/11/22 02:18:43;;;;;;;13.43;7.53;;;5.00;99.90;;;;;;5094852;28;20088;-81
2022/11/22 02:21:09;;;;;;;16.08;7.97;;;4.00;99.90;;;;;;5094478;28;20459;-81
2022/11/22 02:23:38;;;;;;;17.88;8.00;;;5.00;99.90;;;;;;5077921;28;20106;-81
2022/11/22 02:26:04;;;;;;;15.32;7.53;;;3.40;99.90;;;;;;5078019;28;20051;-81
2022/11/22 02:28:36;;;;;;;18.70;7.13;;;2.20;99.90;;;;;;5094396;28;20461;-81
2022/11/22 02:31:02;;;;;;;18.73;7.55;;;3.40;99.90;;;;;;5086419;28;20408;-84
2022/11/22 02:33:28;;;;;;;19.70;8.52;;;3.90;99.90;;;;;;5040857;28;20044;-84
2022/11/22 02:35:55;;;;;;;13.20;7.43;;;3.30;99.90;;;;;;5076388;28;20055;-84
2022/11/22 02:38:24;;;;;;;15.63;6.55;;;3.30;99.90;;;;;;5060355;28;20089;-84
2022/11/22 02:40:55;;;;;;;15.55;7.60;;;3.30;99.90;;;;;;5094100;28;20119;-84
2022/11/22 02:43:30;;;;;;;14.30;7.38;;;3.40;99.90;;;;;;5076200;28;20035;-84
2022/11/22 02:46:03;;;;;;;20.00;7.57;;;4.20;99.90;;;;;;5096257;28;20039;-84
2022/11/22 02:48:29;;;;;;;17.05;8.48;;;5.10;99.90;;;;;;5079004;28;20039;-84
2022/11/22 02:50:54;;;;;;;16.10;7.18;;;5.00;99.90;;;;;;5060738;28;20040;-84
2022/11/22 02:53:20;;;;;;;18.15;8.20;;;4.90;99.90;;;;;;5077539;28;20035;-84
2022/11/22 02:55:46;;;;;;;17.48;7.18;;;4.70;99.90;;;;;;5093450;28;20052;-84
2022/11/22 02:58:11;;;;;;;15.82;7.03;;;4.30;99.90;;;;;;5077420;28;20082;-84
2022/11/22 03:00:38;;;;;;;14.80;7.07;;;3.40;99.90;;;;;;5076560;28;20395;-85
2022/11/22 03:03:04;;;;;;;14.60;7.20;;;4.70;99.90;;;;;;5064368;28;20096;-84
2022/11/22 03:05:30;;;;;;;19.63;8.52;;;5.10;99.90;;;;;;5080972;28;20039;-84
2022/11/22 03:07:56;;;;;;;14.77;7.73;;;3.40;99.90;;;;;;5086811;28;20036;-84
2022/11/22 03:10:22;;;;;;;16.50;7.88;;;;;;;;;;5116712;27;20046;-84
2022/11/22 03:12:48;;;;;;;17.02;7.55;;;3.50;99.90;;;;;;5098033;28;20039;-84
2022/11/22 03:15:13;;;;;;;19.48;8.05;;;3.50;99.90;;;;;;5044285;28;20071;-84
2022/11/22 03:17:39;;;;;;;17.77;7.63;;;3.70;99.90;;;;;;5063672;28;20391;-83
2022/11/22 03:20:05;;;;;;;18.70;8.15;;;4.90;99.90;;;;;;5081830;28;20031;-84
2022/11/22 03:22:31;;;;;;;13.82;7.38;;;3.10;99.90;;;;;;5081569;28;20141;-84
2022/11/22 03:24:57;;;;;;;14.90;7.32;;;5.40;99.90;;;;;;5081791;28;20098;-84
2022/11/22 03:27:22;;;;;;;13.10;8.15;;;3.60;99.90;;;;;;5082084;28;20086;-84
2022/11/22 03:29:48;;;;;;;14.32;7.53;;;3.60;99.90;;;;;;5097841;28;20495;-84
2022/11/22 03:32:14;;;;;;;17.85;6.97;;;3.60;99.90;;;;;;5096829;28;20048;-84
2022/11/22 03:34:39;;;;;;;17.17;7.72;;;4.30;99.90;;;;;;5097145;28;20043;-84
2022/11/22 03:37:05;;;;;;;14.68;7.60;;;3.50;99.90;;;;;;5090224;28;20172;-81
2022/11/22 03:39:31;;;;;;;15.70;7.90;;;3.60;99.90;;;;;;5080967;28;20387;-80
2022/11/22 03:41:57;;;;;;;15.02;8.38;;;5.10;99.90;;;;;;5097210;28;20467;-80
2022/11/22 03:44:23;;;;;;;16.20;8.20;;;3.60;99.90;;;;;;5092237;28;20446;-80
2022/11/22 03:46:49;;;;;;;15.85;7.97;;;4.80;99.90;;;;;;5064418;28;20035;-80
2022/11/22 03:49:14;;;;;;;16.27;8.85;;;4.80;99.90;;;;;;5109572;28;20039;-80
2022/11/22 03:51:40;;;;;;;17.60;8.20;;;4.10;99.90;;;;;;5075800;28;20040;-80
2022/11/22 03:54:06;;;;;;;16.25;7.95;;;5.30;99.90;;;;;;5047815;28;20067;-84
2022/11/22 03:56:31;;;;;;;15.55;7.80;;;2.60;99.90;;;;;;5043290;28;20055;-84
2022/11/22 03:58:57;;;;;;;18.85;7.68;;;5.20;99.90;;;;;;5075073;28;20036;-84
2022/11/22 04:01:23;;;;;;;15.45;7.00;;;4.40;99.90;;;;;;5063504;28;20040;-84
2022/11/22 04:03:49;;;;;;;16.02;8.98;;;4.30;99.90;;;;;;5080080;28;20114;-84
2022/11/22 04:06:14;;;;;;;18.70;8.95;;;4.80;99.90;;;;;;5063357;28;20032;-84
2022/11/22 04:08:40;;;;;;;14.20;8.23;;;5.30;99.90;;;;;;5062984;28;20035;-84
2022/11/22 04:11:06;;;;;;;16.75;6.93;;;3.80;99.90;;;;;;5080199;28;20085;-84
2022/11/22 04:16:15;;;;;;;18.65;9.48;;;5.00;99.90;;;;;;5096649;28;20044;-84
2022/11/22 04:18:41;;;;;;;16.52;8.13;;;4.40;99.90;;;;;;5079888;28;20163;-84
2022/11/22 04:26:35;;;;;;;14.85;7.53;;;5.40;99.90;;;;;;5096676;28;20116;-80
2022/11/22 04:29:01;;;;;;;16.17;7.72;;;5.40;99.90;;;;;;5096724;28;20871;-80
2022/11/22 04:34:28;;;;;;;18.63;7.90;;;3.90;99.90;;;;;;5022785;28;20061;-80
2022/11/22 04:36:53;;;;;;;16.05;8.30;;;3.90;99.90;;;;;;5050719;28;20120;-80
2022/11/22 04:39:20;;;;;;;14.45;7.55;;;4.00;99.90;;;;;;5072997;28;20032;-79
2022/11/22 04:41:46;;;;;;;14.98;7.97;;;5.30;99.90;;;;;;5079730;28;20084;-79
2022/11/22 04:46:56;;;;;;;17.15;7.38;;;4.00;99.90;;;;;;5066871;28;20044;-80
2022/11/22 04:49:22;;;;;;;15.20;8.18;;;5.30;99.90;;;;;;5059657;28;20139;-80
2022/11/22 04:54:31;;;;;;;18.70;8.63;;;5.50;99.90;;;;;;5095705;28;20051;-80
2022/11/22 04:56:57;;;;;;;18.05;8.38;;;5.20;99.90;;;;;;5078694;28;20046;-80
2022/11/22 04:59:23;;;;;;;16.40;8.07;;;5.20;99.90;;;;;;5079626;28;20043;-80
2022/11/22 05:01:49;;;;;;;14.45;7.30;;;4.40;99.90;;;;;;5080135;28;20471;-79
2022/11/22 05:04:14;;;;;;;15.80;8.00;;;4.10;99.90;;;;;;5096476;28;20035;-80
2022/11/22 05:06:40;;;;;;;18.33;9.43;;;4.10;99.90;;;;;;5079383;28;20065;-80
2022/11/22 05:09:06;;;;;;;15.50;7.60;;;4.20;99.90;;;;;;5079834;28;20475;-80
2022/11/22 05:11:31;;;;;;;17.58;7.63;;;4.10;99.90;;;;;;5097209;28;20054;-80
2022/11/22 05:13:57;;;;;;;15.65;8.35;;;4.20;99.90;;;;;;5080407;28;20048;-80
2022/11/22 05:16:23;;;;;;;14.05;8.38;;;6.00;99.90;;;;;;5079620;28;20088;-80
2022/11/22 05:18:57;;;;;;;19.90;7.60;;;5.40;99.90;;;;;;5079874;28;20088;-80
2022/11/22 05:21:25;;;;;;;16.77;7.68;;;4.20;99.90;;;;;;5078964;28;20050;-80
2022/11/22 05:23:54;;;;;;;14.75;8.35;;;5.60;99.90;;;;;;5079926;28;20039;-80
2022/11/22 05:26:35;;;;;;;13.38;8.35;;;4.40;99.90;;;;;;5096403;28;20036;-80
2022/11/22 05:29:09;;;;;;;16.75;7.53;;;4.40;99.90;;;;;;5094024;28;20035;-80
2022/11/22 05:31:36;;;;;;;22.27;8.25;;;4.30;99.90;;;;;;5062026;28;20094;-80
2022/11/22 05:34:04;;;;;;;15.55;8.13;;;4.30;99.90;;;;;;5095128;28;20047;-80
2022/11/22 05:36:33;;;;;;;13.50;7.40;;;4.30;99.90;;;;;;5094878;28;20047;-80
2022/11/22 05:38:59;;;;;;;13.30;7.32;;;5.70;99.90;;;;;;5077964;28;20432;-79
2022/11/22 05:41:25;;;;;;;18.63;7.93;;;4.30;99.90;;;;;;5061434;28;20122;-79
2022/11/22 05:43:54;;;;;;;13.30;7.47;;;6.00;99.90;;;;;;5078234;28;20031;-79
2022/11/22 05:46:23;;;;;;;15.40;7.95;;;4.40;99.90;;;;;;5094532;28;20092;-80
2022/11/22 05:48:48;;;;;;;14.07;7.20;;;4.30;99.90;;;;;;5078073;28;20040;-80
2022/11/22 05:51:16;;;;;;;19.85;7.57;;;4.90;99.90;;;;;;5069916;28;20539;-80
2022/11/22 05:53:43;;;;;;;17.02;6.97;;;4.30;99.90;;;;;;5095717;28;20061;-80
2022/11/22 05:56:15;;;;;;;14.90;6.85;;;4.40;99.90;;;;;;5094299;28;20044;-80
2022/11/22 05:58:41;;;;;;;16.02;7.25;;;5.70;99.90;;;;;;5088911;28;20136;-80
2022/11/22 06:01:09;;;;;;;15.13;7.18;;;4.50;99.90;;;;;;5077843;28;20487;-80
2022/11/22 06:03:36;;;;;;;11.98;7.15;;;5.10;99.90;;;;;;5078203;28;20139;-80
2022/11/22 06:06:03;;;;;;;14.48;7.47;;;5.30;99.90;;;;;;5095209;28;20807;-80
2022/11/22 06:08:30;;;;;;;12.20;6.82;;;4.60;99.90;;;;;;5062415;28;20040;-80
2022/11/22 06:11:03;;;;;;;12.85;6.72;;;5.70;99.90;;;;;;5078006;28;20509;-80
2022/11/22 06:13:35;;;;;;;15.00;7.18;;;4.60;99.90;;;;;;5096441;28;20454;-80
2022/11/22 06:16:02;;;;;;;14.90;7.05;;;4.60;99.90;;;;;;5094835;28;20126;-80
2022/11/22 06:18:28;;;;;;;15.77;7.57;;;5.50;99.90;;;;;;5096015;28;20040;-80
2022/11/22 06:21:02;;;;;;;13.25;6.95;;;6.30;99.90;;;;;;5095244;28;20035;-80
2022/11/22 06:23:28;;;;;;;15.15;7.82;;;4.60;99.90;;;;;;5095532;28;20040;-80
2022/11/22 06:25:59;;;;;;;15.18;6.07;;;4.90;99.90;;;;;;5095491;28;20048;-80
2022/11/22 06:28:27;;;;;;;13.50;7.40;;;5.20;99.90;;;;;;5086214;28;20036;-80
2022/11/22 06:30:52;;;;;;;13.10;6.28;;;5.30;99.90;;;;;;5077768;28;20093;-79
2022/11/22 06:33:19;;;;;;;11.45;5.85;;;4.50;99.90;;;;;;5077398;28;20048;-79
2022/11/22 06:35:44;;;;;;;14.30;7.25;;;6.30;99.90;;;;;;5112971;28;20047;-79
2022/11/22 06:38:10;;;;;;;13.38;6.18;;;6.30;99.90;;;;;;5091338;28;20089;-79
2022/11/22 06:40:36;;;;;;;10.70;6.18;;;5.60;99.90;;;;;;5082139;28;20036;-79
2022/11/22 06:43:01;;;;;;;10.45;6.28;;;4.50;99.90;;;;;;5099335;28;20036;-79
2022/11/22 06:45:27;;;;;;;12.10;6.15;;;5.70;99.90;;;;;;5099627;28;20044;-79
2022/11/22 06:47:53;;;;;;;16.80;7.65;;;5.60;99.90;;;;;;5099454;28;20043;-79
2022/11/22 06:50:18;;;;;;;9.73;4.68;;;5.70;99.90;;;;;;5098853;28;20036;-79
2022/11/22 06:52:50;;;;;;;12.10;5.70;;;4.60;99.90;;;;;;5081670;28;20040;-79
2022/11/22 06:55:16;;;;;;;10.13;4.90;;;4.70;99.90;;;;;;5098287;28;20097;-79
2022/11/22 06:57:42;;;;;;;11.07;5.38;;;4.70;99.90;;;;;;5098511;28;20048;-83
2022/11/22 07:00:09;;;;;;;13.63;6.07;;;6.40;99.90;;;;;;5103283;27;20031;-84
2022/11/22 07:02:34;;;;;;;12.32;5.32;;;4.70;99.90;;;;;;5088838;27;20039;-83
2022/11/22 07:05:00;;;;;;;12.80;5.00;;;4.60;99.90;;;;;;5097618;28;20058;-83
2022/11/22 07:07:26;;;;;;;11.93;5.00;;;4.60;99.90;;;;;;5080949;28;20051;-83
2022/11/22 07:09:51;;;;;;;9.10;4.90;;;4.40;99.90;;;;;;5080661;28;20452;-83
2022/11/22 07:12:17;;;;;;;13.30;5.53;;;4.50;99.90;;;;;;5097228;28;20035;-80
2022/11/22 07:14:43;;;;;;;10.15;4.60;;;4.50;99.90;;;;;;5096845;28;20039;-83
2022/11/22 07:17:08;;;;;;;11.23;5.53;;;4.40;99.90;;;;;;5080502;28;20039;-83
2022/11/22 07:19:34;;;;;;;12.57;4.57;;;6.10;99.90;;;;;;5063747;28;20040;-83
2022/11/22 07:22:00;;;;;;;14.70;4.80;;;4.50;99.90;;;;;;5080603;28;20089;-83
2022/11/22 07:24:25;;;;;;;9.07;4.55;;;4.50;99.90;;;;;;5098433;28;20054;-83
2022/11/22 07:26:51;;;;;;;14.35;5.00;;;4.50;99.90;;;;;;5098055;28;20059;-83
2022/11/22 07:29:17;;;;;;;14.30;5.60;;;4.50;99.90;;;;;;5083812;27;20046;-83
2022/11/22 07:31:45;;;;;;;7.65;3.97;;;4.50;99.90;;;;;;5112963;28;20039;-83
2022/11/22 07:34:10;;;;;;;12.25;4.13;;;4.60;99.90;;;;;;5106821;28;20043;-83
2022/11/22 07:36:36;;;;;;;13.55;4.07;;;4.50;99.90;;;;;;5081605;28;20048;-83
2022/11/22 07:39:02;;;;;;;14.27;4.28;;;5.70;99.90;;;;;;5065215;28;20059;-83
2022/11/22 07:41:28;;;;;;;8.85;3.97;;;4.50;99.90;;;;;;5081658;28;20491;-83
2022/11/22 07:43:54;;;;;;;12.25;4.18;;;4.40;99.90;;;;;;5086323;27;20042;-83
2022/11/22 07:46:28;;;;;;;11.60;4.85;;;4.40;99.90;;;;;;5083488;28;20094;-80
2022/11/22 07:48:54;;;;;;;10.15;4.22;;;5.60;99.90;;;;;;5115636;27;20047;-79
2022/11/22 07:51:20;;;;;;;7.95;3.40;;;4.30;99.90;;;;;;5099460;27;20473;-80
2022/11/22 07:53:46;;;;;;;7.55;3.45;;;5.90;99.90;;;;;;5102388;28;20048;-80
2022/11/22 07:56:12;;;;;;;9.80;3.33;;;4.30;99.90;;;;;;5068561;27;20039;-80
2022/11/22 07:58:38;;;;;;;7.85;3.15;;;4.40;99.90;;;;;;5087063;28;20035;-80
2022/11/22 08:01:09;;;;;;;6.35;2.70;;;4.50;99.90;;;;;;5099379;27;20031;-79
2022/11/22 08:03:35;;;;;;;9.75;3.00;;;4.60;99.90;;;;;;5074234;28;20049;-80
2022/11/22 08:06:02;;;;;;;11.85;2.72;;;4.80;99.90;;;;;;5104069;28;20031;-80
2022/11/22 08:08:28;;;;;;;11.88;2.97;;;4.90;99.90;;;;;;5086323;28;20058;-80
2022/11/22 08:10:54;;;;;;;11.68;2.90;;;5.10;99.90;;;;;;5105776;28;20031;-80
2022/11/22 08:13:21;;;;;;;15.02;3.40;;;5.00;99.90;;;;;;5105034;27;20042;-80
2022/11/22 08:15:49;;;;;;;6.13;2.42;;;4.90;99.90;;;;;;5101283;27;20103;-80
2022/11/22 08:18:15;;;;;;;5.47;2.38;;;4.90;99.90;;;;;;5100235;28;20073;-80
2022/11/22 08:20:41;;;;;;;5.18;2.30;;;5.00;99.90;;;;;;5081191;28;20364;-80
2022/11/22 08:23:07;;;;;;;5.72;2.33;;;5.00;99.90;;;;;;5097911;28;20042;-79
2022/11/22 08:25:33;;;;;;;7.72;2.58;;;4.80;99.90;;;;;;5080620;28;20051;-80
2022/11/22 08:27:58;;;;;;;4.32;2.53;;;4.80;99.90;;;;;;5097943;28;20153;-79
2022/11/22 08:30:24;;;;;;;13.15;2.38;;;6.10;99.90;;;;;;5085068;27;20043;-80
2022/11/22 08:32:52;;;;;;;7.32;2.58;;;4.80;99.90;;;;;;5086845;28;20490;-79
2022/11/22 08:35:18;;;;;;;4.95;2.13;;;6.10;99.90;;;;;;5080870;28;20074;-80
2022/11/22 08:37:44;;;;;;;9.20;2.78;;;6.10;99.90;;;;;;5103960;28;20043;-80
2022/11/22 08:40:10;;;;;;;5.00;2.00;;;6.10;99.90;;;;;;5097104;28;20044;-80
2022/11/22 08:42:36;;;;;;;6.63;2.28;;;4.80;99.90;;;;;;5096685;28;20040;-80
2022/11/22 08:45:01;;;;;;;5.60;2.20;;;4.80;99.90;;;;;;5080895;28;20129;-80
2022/11/22 08:47:27;;;;;;;5.45;2.60;;;4.80;99.90;;;;;;5096968;28;20050;-80
2022/11/22 08:49:53;;;;;;;8.15;2.60;;;4.80;99.90;;;;;;5080551;28;20079;-80
2022/11/22 08:52:18;;;;;;;7.75;2.20;;;4.80;99.90;;;;;;5080264;28;20043;-80
2022/11/22 08:54:44;;;;;;;10.18;3.42;;;4.80;99.90;;;;;;5079858;28;20126;-80
2022/11/22 08:57:10;;;;;;;7.22;2.95;;;4.80;99.90;;;;;;5096465;28;20043;-80
2022/11/22 08:59:35;;;;;;;7.75;2.47;;;4.80;99.90;;;;;;5078304;28;20036;-80
2022/11/22 09:02:01;;;;;;;4.50;2.22;;;4.80;99.90;;;;;;5096978;28;20078;-80
2022/11/22 09:04:27;;;;;;;5.82;2.40;;;4.70;99.90;;;;;;5079752;28;20069;-80
2022/11/22 09:06:53;;;;;;;2.97;1.85;;;4.80;99.90;;;;;;5079826;28;20139;-81
2022/11/22 09:09:18;;;;;;;10.13;3.00;;;4.70;99.90;;;;;;5079965;28;20050;-81
2022/11/22 09:11:44;;;;;;;6.68;2.15;;;4.70;99.90;;;;;;5080802;28;20496;-80
2022/11/22 09:14:10;;;;;;;9.00;2.90;;;4.70;99.90;;;;;;5097028;28;20044;-80
2022/11/22 09:16:35;;;;;;;7.70;2.13;;;6.10;99.90;;;;;;5097070;28;20046;-80
2022/11/22 09:19:01;;;;;;;3.72;2.00;;;4.70;99.90;;;;;;5097097;28;20036;-80
2022/11/22 09:21:27;;;;;;;5.45;2.25;;;4.70;99.90;;;;;;5096680;28;20031;-80
2022/11/22 09:23:53;;;;;;;5.22;2.10;;;5.50;99.90;;;;;;5079748;28;20076;-80
2022/11/22 09:26:21;;;;;;;7.10;2.20;;;5.00;99.90;;;;;;5097108;28;20483;-80
2022/11/22 09:28:47;;;;;;;6.00;2.25;;;5.50;99.90;;;;;;5095643;28;20039;-80
2022/11/22 09:31:15;;;;;;;5.30;2.10;;;5.00;99.90;;;;;;5079042;28;20040;-79
2022/11/22 09:33:44;;;;;;;9.32;2.25;;;5.00;99.90;;;;;;5075881;28;20097;-79
2022/11/22 09:36:12;;;;;;;7.15;2.42;;;6.00;99.90;;;;;;5083768;28;20054;-80
2022/11/22 09:38:38;;;;;;;7.30;2.88;;;4.90;99.90;;;;;;5105259;28;20043;-80
2022/11/22 09:41:21;;;;;;;4.80;2.40;;;5.50;99.90;;;;;;5112817;28;20065;-80
2022/11/22 09:43:58;;;;;;;6.80;2.10;;;4.90;99.90;;;;;;5079311;28;20110;-80
2022/11/22 09:46:45;;;;;;;6.15;2.35;;;4.90;99.90;;;;;;5080249;28;20052;-80
2022/11/22 09:49:33;;;;;;;5.57;2.22;;;4.90;99.90;;;;;;5079756;28;20043;-80
2022/11/22 09:52:07;;;;;;;3.53;2.28;;;4.90;99.90;;;;;;5096055;28;20040;-80
2022/11/22 09:54:40;;;;;;;6.57;2.10;;;5.00;99.90;;;;;;5096089;28;20047;-80
2022/11/22 09:57:13;;;;;;;5.03;2.65;;;5.00;99.90;;;;;;5096773;28;20035;-80
2022/11/22 09:59:43;;;;;;;3.40;2.00;;;4.90;99.90;;;;;;5094833;28;20560;-80
2022/11/22 10:02:31;;;;;;;8.48;2.10;;;5.00;99.90;;;;;;5094196;28;20040;-81
2022/11/22 10:05:01;;;;;;;4.80;2.58;;;5.00;99.90;;;;;;5094988;28;20047;-81
2022/11/22 10:07:50;;;;;;;4.82;2.00;;;5.10;99.90;;;;;;5127626;27;20585;-81
2022/11/22 10:10:40;;;;;;;6.78;2.50;;;5.10;99.90;;;;;;5094817;28;20509;-81
2022/11/22 10:13:18;;;;;;;6.88;2.35;;;5.10;99.90;;;;;;5094287;28;20035;-81
2022/11/22 10:16:03;;;;;;;7.47;2.20;;;5.10;99.90;;;;;;5094400;28;20050;-81
2022/11/22 10:19:10;;;;;;;5.15;2.10;;;5.20;99.90;;;;;;5095660;28;20039;-80
2022/11/22 10:21:36;;;;;;;5.10;2.10;;;5.20;99.90;;;;;;5014933;28;20033;-80
2022/11/22 10:24:03;;;;;;;6.68;2.65;;;5.20;99.90;;;;;;5081908;28;20364;-80
2022/11/22 10:26:31;;;;;;;8.05;2.22;;;5.30;99.90;;;;;;5058630;28;20044;-80
2022/11/22 10:29:00;;;;;;;4.85;2.45;;;6.70;99.90;;;;;;5103092;28;20370;-80
2022/11/22 10:31:35;;;;;;;7.03;2.03;;;5.30;99.90;;;;;;5099263;28;20034;-80
2022/11/22 10:34:35;;;;;;;7.68;2.00;;;5.40;99.90;;;;;;5096680;28;20088;-81
2022/11/22 10:37:19;;;;;;;9.50;3.08;;;5.40;99.90;;;;;;5098881;28;20086;-81
2022/11/22 10:40:08;;;;;;;8.43;2.13;;;5.60;99.90;;;;;;5079309;28;20040;-81
2022/11/22 10:42:49;;;;;;;8.10;2.05;;;5.40;99.90;;;;;;5095345;28;20453;-81
2022/11/22 10:45:35;;;;;;;6.43;2.35;;;5.40;99.90;;;;;;5086702;28;20458;-81
2022/11/22 10:48:22;;;;;;;3.35;1.73;;;5.50;99.90;;;;;;5108993;22;20157;-85
2022/11/22 10:51:16;;;;;;;14.88;2.25;;;5.50;99.90;;;;;;5053842;28;20499;-85
2022/11/22 10:53:48;;;;;;;6.30;2.65;;;5.50;99.90;;;;;;5037878;28;20037;-85
2022/11/22 10:56:37;;;;;;;4.63;2.08;;;5.50;99.90;;;;;;5054494;28;20395;-87
2022/11/22 10:59:42;;;;;;;4.75;1.92;;;6.80;99.90;;;;;;5070800;28;20389;-87
2022/11/22 11:02:26;;;;;;;8.32;3.55;;;5.50;99.90;;;;;;5038004;28;20044;-87
2022/11/22 11:04:53;;;;;;;4.90;1.63;;;5.50;99.90;;;;;;5051479;28;20478;-87
2022/11/22 11:07:22;;;;;;;3.50;1.67;;;5.60;99.90;;;;;;5037606;28;20036;-83
2022/11/22 11:09:56;;;;;;;5.63;1.90;;;5.50;99.90;;;;;;5054130;28;20043;-84
2022/11/22 11:12:28;;;;;;;3.90;1.92;;;5.70;99.90;;;;;;5055378;28;20464;-83
2022/11/22 11:15:05;;;;;;;2.58;1.55;;;5.50;99.90;;;;;;5038464;28;20044;-83
2022/11/22 11:17:37;;;;;;;2.65;1.42;;;5.60;99.90;;;;;;5055020;28;20048;-83
2022/11/22 11:20:12;;;;;;;3.05;1.67;;;5.60;99.90;;;;;;5038594;28;20447;-83
2022/11/22 11:22:38;;;;;;;3.67;1.60;;;5.70;99.90;;;;;;5039003;28;20040;-83
2022/11/22 11:25:39;;;;;;;2.35;1.30;;;6.00;99.90;;;;;;5025941;28;20044;-85
2022/11/22 11:28:17;;;;;;;2.67;1.40;;;6.30;99.90;;;;;;5055415;28;20054;-85
2022/11/22 11:30:44;;;;;;;6.53;1.77;;;6.80;99.90;;;;;;5058225;28;20053;-85
2022/11/22 11:33:20;;;;;;;4.45;2.25;;;6.70;99.90;;;;;;5058575;28;20036;-85
2022/11/22 11:35:47;;;;;;;6.78;1.50;;;7.00;99.90;;;;;;5058231;28;20107;-84
2022/11/22 11:38:30;;;;;;;6.25;1.52;;;7.10;99.90;;;;;;5058462;28;20047;-85
2022/11/22 11:40:56;;;;;;;2.50;1.45;;;7.10;99.90;;;;;;5058085;28;20499;-86
2022/11/22 11:43:23;;;;;;;4.65;1.63;;;7.10;99.90;;;;;;5058021;28;20041;-86
2022/11/22 11:45:50;;;;;;;4.40;2.08;;;7.00;99.90;;;;;;5058126;28;20480;-86
2022/11/22 11:48:27;;;;;;;4.43;1.83;;;7.40;99.90;;;;;;5041698;28;20131;-86
2022/11/22 11:51:07;;;;;;;3.63;1.70;;;6.90;99.90;;;;;;5045891;28;20105;-87
2022/11/22 11:53:33;;;;;;;5.68;1.40;;;6.90;99.90;;;;;;5065975;28;20047;-87
2022/11/22 11:56:29;;;;;;;3.97;1.10;;;6.70;99.90;;;;;;5030215;28;20028;-87
2022/11/22 11:58:56;;;;;;;2.70;1.35;;;6.70;99.90;;;;;;5062706;28;20040;-85
2022/11/22 12:01:26;;;;;;;2.60;1.40;;;6.80;99.90;;;;;;5066853;28;20082;-85
2022/11/22 12:04:00;;;;;;;3.38;1.63;;;7.20;99.90;;;;;;5062048;28;20083;-83
2022/11/22 12:06:30;;;;;;;5.40;1.60;;;6.60;99.90;;;;;;5078007;28;20082;-84
2022/11/22 12:08:57;;;;;;;7.40;1.98;;;7.00;99.90;;;;;;5047486;28;20040;-84
2022/11/22 12:11:45;;;;;;;4.65;1.48;;;6.90;99.90;;;;;;5041064;28;20048;-84
2022/11/22 12:14:12;;;;;;;3.30;1.35;;;7.00;99.90;;;;;;5046803;28;20036;-82
2022/11/22 12:16:51;;;;;;;3.03;1.38;;;7.10;99.90;;;;;;5057906;28;20040;-82
2022/11/22 12:19:27;;;;;;;3.75;1.27;;;7.90;99.90;;;;;;5062475;28;20119;-83
2022/11/22 12:22:21;;;;;;;6.93;1.63;;;7.00;99.90;;;;;;5077877;28;20044;-83
2022/11/22 12:24:58;;;;;;;3.88;1.65;;;7.00;99.90;;;;;;5062299;28;20388;-83
2022/11/22 12:27:24;;;;;;;4.50;1.20;;;6.90;99.90;;;;;;5052753;28;20044;-82
2022/11/22 12:29:51;;;;;;;4.18;1.45;;;7.60;99.90;;;;;;5056262;28;20032;-83
2022/11/22 12:32:26;;;;;;;3.20;1.25;;;6.70;99.90;;;;;;5056117;28;20072;-83
2022/11/22 12:35:15;;;;;;;3.53;1.50;;;6.80;99.90;;;;;;5047374;28;20043;-83
2022/11/22 12:37:55;;;;;;;4.85;1.45;;;6.70;99.90;;;;;;5052499;28;20079;-83
2022/11/22 12:40:30;;;;;;;2.75;1.33;;;8.70;99.90;;;;;;5027152;28;20056;-83
2022/11/22 12:43:23;;;;;;;5.15;1.73;;;6.60;99.90;;;;;;5040173;28;20119;-83
2022/11/22 12:46:08;;;;;;;5.60;1.67;;;6.60;99.90;;;;;;5055374;28;20040;-83
2022/11/22 12:48:45;;;;;;;2.38;1.60;;;6.90;99.90;;;;;;5057087;28;20057;-84
2022/11/22 12:51:33;;;;;;;5.78;1.42;;;6.60;99.90;;;;;;5041496;28;20127;-84
2022/11/22 12:54:03;;;;;;;5.07;1.40;;;7.10;99.90;;;;;;5058336;28;20119;-84
2022/11/22 12:56:43;;;;;;;4.68;1.30;;;7.70;99.90;;;;;;5056577;28;20125;-85
2022/11/22 12:59:09;;;;;;;2.28;0.98;;;7.60;99.90;;;;;;5040315;28;20045;-84
2022/11/22 13:01:41;;;;;;;2.40;1.25;;;6.50;99.90;;;;;;5057046;28;20067;-84
2022/11/22 13:04:09;;;;;;;3.67;1.27;;;6.60;99.90;;;;;;5056673;28;20123;-86
2022/11/22 13:07:10;;;;;;;2.72;1.35;;;6.60;99.90;;;;;;5056609;28;20044;-85
2022/11/22 13:09:41;;;;;;;4.35;1.60;;;6.60;99.90;;;;;;5057002;28;20040;-86
2022/11/22 13:12:14;;;;;;;3.45;1.38;;;6.70;99.90;;;;;;5065108;28;20048;-86
2022/11/22 13:14:44;;;;;;;1.70;1.13;;;6.70;99.90;;;;;;5040562;28;20438;-86
2022/11/22 13:17:15;;;;;;;2.85;1.65;;;6.80;99.90;;;;;;5056580;28;20052;-86
2022/11/22 13:19:58;;;;;;;2.92;1.27;;;7.60;99.90;;;;;;5039559;28;20407;-85